createdAt,value
2022-10-16T00:00:56.029Z,5.22
2022-10-16T00:03:26.576Z,3.97
2022-10-16T00:06:01.339Z,5.38
2022-10-16T00:08:28.247Z,6.65
2022-10-16T00:11:04.387Z,3.72
2022-10-16T00:13:32.636Z,5.40
2022-10-16T00:16:00.385Z,4.78
2022-10-16T00:18:28.342Z,3.05
2022-10-16T00:23:27.378Z,4.88
2022-10-16T00:26:03.377Z,5.93
2022-10-16T00:28:30.475Z,5.53
2022-10-16T00:30:57.408Z,9.63
2022-10-16T00:33:24.277Z,3.13
2022-10-16T00:35:51.300Z,5.45
2022-10-16T00:38:18.457Z,4.07
2022-10-16T00:40:45.131Z,6.32
2022-10-16T00:43:38.948Z,7.45
2022-10-16T00:46:12.273Z,7.13
2022-10-16T00:48:39.170Z,6.43
2022-10-16T00:51:07.942Z,4.53
2022-10-16T00:53:35.831Z,2.58
2022-10-16T00:56:02.867Z,3.28
2022-10-16T00:58:29.488Z,6.03
2022-10-16T01:00:56.187Z,7.20
2022-10-16T01:03:29.996Z,4.05
2022-10-16T01:06:27.073Z,6.97
2022-10-16T01:09:12.953Z,7.90
2022-10-16T01:11:46.251Z,5.32
2022-10-16T01:14:29.928Z,4.15
2022-10-16T01:17:07.415Z,5.38
2022-10-16T01:19:52.702Z,5.35
2022-10-16T01:22:22.846Z,7.25
2022-10-16T01:24:50.667Z,6.28
2022-10-16T01:27:23.887Z,6.15
2022-10-16T01:29:55.484Z,9.18
2022-10-16T01:32:53.663Z,7.53
2022-10-16T01:35:29.164Z,6.82
2022-10-16T01:38:18.625Z,5.97
2022-10-16T01:40:53.309Z,6.60
2022-10-16T01:43:27.830Z,7.53
2022-10-16T01:45:55.066Z,7.40
2022-10-16T01:48:24.437Z,7.75
2022-10-16T01:51:06.016Z,4.50
2022-10-16T01:53:33.681Z,4.93
2022-10-16T01:56:03.061Z,7.68
2022-10-16T01:58:35.480Z,7.82
2022-10-16T02:01:04.156Z,7.05
2022-10-16T02:03:33.221Z,9.25
2022-10-16T02:06:00.186Z,10.43
2022-10-16T02:08:29.618Z,5.75
2022-10-16T02:10:58.250Z,5.40
2022-10-16T02:13:42.257Z,7.10
2022-10-16T02:16:11.214Z,7.00
2022-10-16T02:18:37.862Z,7.63
2022-10-16T02:21:23.058Z,6.22
2022-10-16T02:23:53.598Z,4.95
2022-10-16T02:26:36.254Z,4.20
2022-10-16T02:29:08.930Z,3.05
2022-10-16T02:31:39.271Z,8.07
2022-10-16T02:34:07.534Z,5.57
2022-10-16T02:36:36.926Z,4.70
2022-10-16T02:39:05.268Z,4.82
2022-10-16T02:41:32.665Z,4.95
2022-10-16T02:43:59.315Z,7.45
2022-10-16T02:46:25.946Z,4.47
2022-10-16T02:48:52.550Z,5.70
2022-10-16T02:51:19.143Z,6.65
2022-10-16T02:53:45.806Z,5.28
2022-10-16T02:56:12.632Z,5.93
2022-10-16T02:58:39.267Z,4.40
2022-10-16T03:01:06.030Z,5.95
2022-10-16T03:03:32.692Z,6.35
2022-10-16T03:05:59.313Z,4.82
2022-10-16T03:08:26.150Z,5.07
2022-10-16T03:10:53.406Z,7.07
2022-10-16T03:13:21.410Z,8.30
2022-10-16T03:15:48.297Z,4.85
2022-10-16T03:18:15.855Z,5.85
2022-10-16T03:20:43.979Z,4.93
2022-10-16T03:23:11.094Z,7.55
2022-10-16T03:25:37.732Z,4.93
2022-10-16T03:28:04.516Z,7.53
2022-10-16T03:30:31.242Z,6.28
2022-10-16T03:32:57.876Z,4.18
2022-10-16T03:35:25.176Z,6.28
2022-10-16T03:37:52.055Z,3.95
2022-10-16T03:40:18.815Z,6.40
2022-10-16T03:42:45.396Z,10.02
2022-10-16T03:45:12.793Z,5.72
2022-10-16T03:47:39.502Z,6.50
2022-10-16T03:50:06.761Z,6.88
2022-10-16T03:52:33.901Z,10.88
2022-10-16T03:55:00.524Z,4.90
2022-10-16T03:57:27.512Z,11.50
2022-10-16T03:59:54.241Z,4.32
2022-10-16T04:02:20.786Z,4.80
2022-10-16T04:04:47.498Z,4.53
2022-10-16T04:07:14.150Z,3.97
2022-10-16T04:09:40.889Z,6.32
2022-10-16T04:12:07.477Z,5.30
2022-10-16T04:14:34.180Z,6.78
2022-10-16T04:17:00.822Z,3.80
2022-10-16T04:19:27.404Z,5.35
2022-10-16T04:21:54.926Z,3.97
2022-10-16T04:24:21.531Z,8.23
2022-10-16T04:26:48.168Z,9.07
2022-10-16T04:29:14.726Z,4.28
2022-10-16T04:31:41.332Z,5.85
2022-10-16T04:34:07.975Z,8.45
2022-10-16T04:36:34.585Z,5.15
2022-10-16T04:39:01.164Z,7.75
2022-10-16T04:41:27.789Z,6.45
2022-10-16T04:43:54.335Z,7.55
2022-10-16T04:46:20.952Z,4.97
2022-10-16T04:48:47.809Z,5.43
2022-10-16T04:51:14.425Z,8.18
2022-10-16T04:53:41.007Z,6.05
2022-10-16T04:56:07.650Z,8.88
2022-10-16T04:58:34.326Z,5.95
2022-10-16T05:01:00.989Z,6.90
2022-10-16T05:03:27.664Z,8.50
2022-10-16T05:05:54.340Z,8.05
2022-10-16T05:08:20.981Z,14.40
2022-10-16T05:10:47.614Z,8.20
2022-10-16T05:13:14.205Z,9.50
2022-10-16T05:15:40.964Z,10.90
2022-10-16T05:18:07.641Z,11.23
2022-10-16T05:20:34.266Z,10.23
2022-10-16T05:23:01.091Z,12.18
2022-10-16T05:25:27.815Z,10.40
2022-10-16T05:27:54.443Z,11.95
2022-10-16T05:30:21.275Z,8.60
2022-10-16T05:32:51.876Z,8.80
2022-10-16T05:35:19.705Z,7.22
2022-10-16T05:37:46.520Z,10.13
2022-10-16T05:40:13.946Z,8.93
2022-10-16T05:42:41.674Z,9.80
2022-10-16T05:45:10.931Z,9.52
2022-10-16T05:47:37.615Z,11.48
2022-10-16T05:50:05.266Z,9.93
2022-10-16T05:52:32.034Z,11.77
2022-10-16T05:54:58.586Z,11.18
2022-10-16T05:57:25.489Z,11.15
2022-10-16T05:59:52.528Z,9.23
2022-10-16T06:02:19.141Z,8.52
2022-10-16T06:04:45.732Z,11.13
2022-10-16T06:07:12.325Z,8.55
2022-10-16T06:09:38.984Z,8.23
2022-10-16T06:12:05.641Z,11.30
2022-10-16T06:14:33.236Z,14.48
2022-10-16T06:16:59.922Z,16.40
2022-10-16T06:19:26.479Z,15.32
2022-10-16T06:21:53.090Z,18.45
2022-10-16T06:24:19.922Z,16.17
2022-10-16T06:26:46.511Z,13.23
2022-10-16T06:29:13.139Z,8.35
2022-10-16T06:31:39.688Z,8.23
2022-10-16T06:34:10.255Z,11.25
2022-10-16T06:36:37.084Z,8.82
2022-10-16T06:39:04.365Z,8.18
2022-10-16T06:41:31.009Z,12.77
2022-10-16T06:44:08.094Z,11.05
2022-10-16T06:46:35.525Z,12.75
2022-10-16T06:49:02.126Z,13.57
2022-10-16T06:51:28.846Z,9.25
2022-10-16T06:54:04.996Z,13.40
2022-10-16T06:56:33.277Z,10.45
2022-10-16T06:59:00.636Z,10.00
2022-10-16T07:01:27.905Z,11.63
2022-10-16T07:03:54.529Z,15.68
2022-10-16T07:06:23.456Z,12.02
2022-10-16T07:08:50.341Z,13.45
2022-10-16T07:11:22.155Z,13.00
2022-10-16T07:13:52.958Z,13.00
2022-10-16T07:16:28.682Z,13.25
2022-10-16T07:18:59.928Z,13.27
2022-10-16T07:21:29.854Z,13.52
2022-10-16T07:24:02.069Z,12.38
2022-10-16T07:26:31.835Z,15.32
2022-10-16T07:28:58.601Z,11.13
2022-10-16T07:31:26.013Z,10.25
2022-10-16T07:33:52.782Z,11.90
2022-10-16T07:36:20.874Z,13.20
2022-10-16T07:38:48.509Z,13.43
2022-10-16T07:41:17.986Z,15.23
2022-10-16T07:43:52.397Z,8.63
2022-10-16T07:46:20.445Z,5.25
2022-10-16T07:48:48.891Z,7.65
2022-10-16T07:51:18.666Z,12.57
2022-10-16T07:53:45.479Z,12.02
2022-10-16T07:56:12.987Z,9.70
2022-10-16T07:58:39.946Z,8.73
2022-10-16T08:01:15.022Z,9.85
2022-10-16T08:03:46.242Z,7.63
2022-10-16T08:06:12.901Z,9.30
2022-10-16T08:08:39.683Z,9.85
2022-10-16T08:11:06.417Z,7.50
2022-10-16T08:13:33.370Z,7.50
2022-10-16T08:16:00.462Z,8.68
2022-10-16T08:18:27.149Z,4.93
2022-10-16T08:20:58.855Z,3.75
2022-10-16T08:23:26.942Z,4.80
2022-10-16T08:26:02.302Z,5.53
2022-10-16T08:28:29.086Z,3.78
2022-10-16T08:30:57.494Z,5.05
2022-10-16T08:33:24.261Z,4.65
2022-10-16T08:35:54.567Z,3.17
2022-10-16T08:38:24.534Z,3.80
2022-10-16T08:40:53.710Z,2.90
2022-10-16T08:43:29.495Z,2.08
2022-10-16T08:46:07.825Z,6.00
2022-10-16T08:48:48.665Z,4.68
2022-10-16T08:51:40.402Z,9.07
2022-10-16T08:54:19.913Z,4.43
2022-10-16T08:56:46.558Z,4.30
2022-10-16T08:59:16.881Z,5.93
2022-10-16T09:01:50.357Z,4.32
2022-10-16T09:04:56.447Z,5.57
2022-10-16T09:07:42.363Z,5.00
2022-10-16T09:10:22.870Z,3.80
2022-10-16T09:13:26.888Z,3.53
2022-10-16T09:15:53.617Z,4.43
2022-10-16T09:18:33.078Z,7.22
2022-10-16T09:21:11.623Z,11.75
2022-10-16T09:23:38.729Z,2.17
2022-10-16T09:26:10.599Z,5.63
2022-10-16T09:28:37.312Z,2.95
2022-10-16T09:31:04.026Z,1.85
2022-10-16T09:33:39.579Z,3.83
2022-10-16T09:36:07.632Z,3.22
2022-10-16T09:38:37.042Z,2.55
2022-10-16T09:41:13.182Z,3.47
2022-10-16T09:43:58.121Z,3.05
2022-10-16T09:46:30.377Z,1.77
2022-10-16T09:48:59.450Z,2.90
2022-10-16T09:51:29.765Z,2.45
2022-10-16T09:54:10.671Z,1.35
2022-10-16T09:56:40.200Z,3.85
2022-10-16T09:59:17.702Z,1.50
2022-10-16T10:01:48.100Z,8.20
2022-10-16T10:04:15.397Z,4.78
2022-10-16T10:06:46.079Z,6.85
2022-10-16T10:09:20.313Z,3.83
2022-10-16T10:11:55.755Z,6.78
2022-10-16T10:14:27.264Z,6.10
2022-10-16T10:17:05.697Z,3.75
2022-10-16T10:19:40.963Z,5.15
2022-10-16T10:22:37.769Z,6.30
2022-10-16T10:25:04.282Z,3.03
2022-10-16T10:27:58.459Z,4.22
2022-10-16T10:30:58.583Z,3.42
2022-10-16T10:33:42.717Z,2.13
2022-10-16T10:36:15.204Z,2.38
2022-10-16T10:38:57.655Z,2.47
2022-10-16T10:41:40.961Z,2.00
2022-10-16T10:44:38.904Z,7.45
2022-10-16T10:47:17.584Z,1.50
2022-10-16T10:50:06.572Z,3.45
2022-10-16T10:52:43.888Z,1.80
2022-10-16T10:55:39.222Z,4.45
2022-10-16T10:58:19.668Z,2.08
2022-10-16T11:01:10.858Z,9.60
2022-10-16T11:04:04.215Z,3.55
2022-10-16T11:06:41.087Z,3.83
2022-10-16T11:09:22.565Z,11.98
2022-10-16T11:11:55.589Z,4.15
2022-10-16T11:14:32.973Z,1.42
2022-10-16T11:17:06.641Z,4.82
2022-10-16T11:19:42.209Z,3.70
2022-10-16T11:22:32.900Z,1.80
2022-10-16T11:25:12.358Z,3.58
2022-10-16T11:28:12.352Z,5.72
2022-10-16T11:30:52.184Z,6.93
2022-10-16T11:33:18.763Z,11.10
2022-10-16T11:35:58.117Z,4.10
2022-10-16T11:39:09.624Z,4.28
2022-10-16T11:41:46.778Z,3.17
2022-10-16T11:44:27.853Z,2.42
2022-10-16T11:50:49.650Z,6.55
2022-10-16T11:53:29.457Z,3.28
2022-10-16T11:55:56.092Z,7.25
2022-10-16T11:58:25.360Z,5.13
2022-10-16T12:01:07.561Z,4.93
2022-10-16T12:04:01.116Z,4.28
2022-10-16T12:06:43.830Z,3.90
2022-10-16T12:09:25.633Z,3.63
2022-10-16T12:11:52.296Z,3.42
2022-10-16T12:14:22.453Z,3.70
2022-10-16T12:16:56.631Z,2.03
2022-10-16T12:19:25.238Z,5.53
2022-10-16T12:21:56.527Z,3.08
2022-10-16T12:24:42.776Z,3.65
2022-10-16T12:27:42.677Z,6.25
2022-10-16T12:30:24.422Z,4.30
2022-10-16T12:32:56.928Z,5.68
2022-10-16T12:35:30.844Z,5.78
2022-10-16T12:38:21.385Z,6.93
2022-10-16T12:41:00.642Z,6.82
2022-10-16T12:43:29.810Z,3.63
2022-10-16T12:46:02.686Z,5.55
2022-10-16T12:48:42.384Z,1.95
2022-10-16T12:51:30.768Z,3.42
2022-10-16T12:54:01.442Z,3.50
2022-10-16T12:56:46.235Z,3.83
2022-10-16T12:59:37.431Z,6.55
2022-10-16T13:02:25.266Z,1.65
2022-10-16T13:05:12.933Z,3.00
2022-10-16T13:08:12.649Z,4.75
2022-10-16T13:10:58.028Z,4.40
2022-10-16T13:13:51.646Z,2.20
2022-10-16T13:16:36.716Z,2.95
2022-10-16T13:19:19.929Z,4.13
2022-10-16T13:22:18.031Z,4.65
2022-10-16T13:25:03.189Z,5.32
2022-10-16T13:27:55.324Z,4.20
2022-10-16T13:30:30.892Z,5.60
2022-10-16T13:33:05.158Z,3.85
2022-10-16T13:35:34.343Z,2.67
2022-10-16T13:38:19.010Z,3.22
2022-10-16T13:41:06.488Z,10.43
2022-10-16T13:43:41.126Z,3.58
2022-10-16T13:46:35.189Z,3.42
2022-10-16T13:49:04.672Z,2.28
2022-10-16T13:51:32.589Z,4.65
2022-10-16T13:53:59.977Z,3.08
2022-10-16T13:56:33.606Z,11.60
2022-10-16T13:59:06.331Z,4.20
2022-10-16T14:01:43.074Z,3.67
2022-10-16T14:04:12.924Z,2.00
2022-10-16T14:06:46.037Z,6.68
2022-10-16T14:09:28.751Z,5.55
2022-10-16T14:12:02.608Z,5.35
2022-10-16T14:14:40.930Z,5.03
2022-10-16T14:17:13.988Z,4.47
2022-10-16T14:19:40.841Z,4.18
2022-10-16T14:22:29.196Z,6.00
2022-10-16T14:24:56.410Z,4.78
2022-10-16T14:27:35.918Z,4.28
2022-10-16T14:30:15.627Z,6.18
2022-10-16T14:32:53.064Z,4.93
2022-10-16T14:35:37.688Z,8.88
2022-10-16T14:38:06.141Z,5.88
2022-10-16T14:40:38.136Z,6.55
2022-10-16T14:43:05.880Z,4.85
2022-10-16T14:45:35.458Z,16.67
2022-10-16T14:48:07.081Z,5.38
2022-10-16T14:50:33.669Z,3.25
2022-10-16T14:53:00.545Z,5.38
2022-10-16T14:55:27.290Z,7.75
2022-10-16T14:57:58.210Z,3.88
2022-10-16T15:00:27.468Z,5.40
2022-10-16T15:02:54.177Z,6.10
2022-10-16T15:05:27.253Z,4.80
2022-10-16T15:07:56.040Z,4.28
2022-10-16T15:10:24.397Z,3.28
2022-10-16T15:12:51.384Z,4.22
2022-10-16T15:15:24.029Z,9.13
2022-10-16T15:17:57.578Z,7.75
2022-10-16T15:20:25.846Z,4.57
2022-10-16T15:22:52.634Z,5.18
2022-10-16T15:25:33.706Z,6.25
2022-10-16T15:28:02.195Z,5.22
2022-10-16T15:30:29.143Z,2.10
2022-10-16T15:32:56.207Z,6.97
2022-10-16T15:35:23.208Z,2.92
2022-10-16T15:37:50.087Z,4.60
2022-10-16T15:40:18.883Z,5.97
2022-10-16T15:42:45.523Z,6.55
2022-10-16T15:45:13.703Z,4.07
2022-10-16T15:47:45.030Z,3.75
2022-10-16T15:50:14.612Z,4.70
2022-10-16T15:52:42.096Z,5.38
2022-10-16T15:55:10.485Z,3.75
2022-10-16T15:57:39.230Z,4.43
2022-10-16T16:00:12.275Z,5.60
2022-10-16T16:02:40.335Z,11.57
2022-10-16T16:05:08.904Z,11.55
2022-10-16T16:07:37.013Z,3.70
2022-10-16T16:10:05.414Z,4.32
2022-10-16T16:12:32.450Z,2.75
2022-10-16T16:15:02.008Z,2.90
2022-10-16T16:17:33.385Z,3.63
2022-10-16T16:20:00.265Z,5.50
2022-10-16T16:22:27.394Z,5.63
2022-10-16T16:24:56.546Z,5.50
2022-10-16T16:27:26.005Z,5.20
2022-10-16T16:29:54.193Z,8.05
2022-10-16T16:32:21.119Z,6.80
2022-10-16T16:34:47.780Z,5.47
2022-10-16T16:37:14.565Z,6.78
2022-10-16T16:39:41.266Z,9.18
2022-10-16T16:42:08.419Z,7.57
2022-10-16T16:44:37.071Z,11.27
2022-10-16T16:47:05.486Z,15.88
2022-10-16T16:49:32.257Z,18.02
2022-10-16T16:51:58.876Z,21.70
2022-10-16T16:54:25.788Z,24.88
2022-10-16T16:56:52.563Z,22.98
2022-10-16T16:59:21.045Z,23.13
2022-10-16T17:01:49.137Z,13.30
2022-10-16T17:04:17.953Z,11.82
2022-10-16T17:06:44.611Z,13.20
2022-10-16T17:09:14.058Z,6.05
2022-10-16T17:11:43.790Z,6.32
2022-10-16T17:14:10.830Z,14.45
2022-10-16T17:16:38.827Z,13.88
2022-10-16T17:19:08.586Z,9.27
2022-10-16T17:21:35.894Z,11.63
2022-10-16T17:24:02.867Z,10.02
2022-10-16T17:26:30.354Z,12.45
2022-10-16T17:28:59.537Z,13.50
2022-10-16T17:31:32.270Z,17.23
2022-10-16T17:34:01.053Z,16.75
2022-10-16T17:36:32.976Z,12.82
2022-10-16T17:39:04.185Z,12.68
2022-10-16T17:41:35.207Z,6.75
2022-10-16T17:44:03.222Z,14.40
2022-10-16T17:46:30.310Z,9.15
2022-10-16T17:48:57.029Z,7.68
2022-10-16T17:51:29.141Z,6.18
2022-10-16T17:53:58.626Z,7.78
2022-10-16T17:56:26.564Z,6.07
2022-10-16T17:58:55.363Z,9.43
2022-10-16T18:01:25.067Z,8.82
2022-10-16T18:03:54.987Z,7.13
2022-10-16T18:06:22.899Z,3.45
2022-10-16T18:08:51.196Z,8.13
2022-10-16T18:11:18.120Z,7.97
2022-10-16T18:13:44.705Z,4.50
2022-10-16T18:16:14.066Z,7.25
2022-10-16T18:18:44.593Z,10.18
2022-10-16T18:21:13.916Z,16.75
2022-10-16T18:23:41.273Z,9.65
2022-10-16T18:26:09.769Z,8.77
2022-10-16T18:28:36.485Z,9.38
2022-10-16T18:31:06.777Z,7.13
2022-10-16T18:33:33.936Z,8.90
2022-10-16T18:36:05.978Z,15.85
2022-10-16T18:38:33.137Z,9.60
2022-10-16T18:41:01.854Z,11.57
2022-10-16T18:43:30.473Z,6.28
2022-10-16T18:45:59.736Z,5.30
2022-10-16T18:48:27.245Z,6.85
2022-10-16T18:50:54.321Z,9.50
2022-10-16T18:53:21.003Z,4.60
2022-10-16T18:55:53.965Z,7.13
2022-10-16T18:58:20.655Z,8.80
2022-10-16T19:00:47.293Z,7.13
2022-10-16T19:03:13.890Z,9.35
2022-10-16T19:05:40.492Z,6.40
2022-10-16T19:08:07.699Z,8.05
2022-10-16T19:10:37.261Z,15.57
2022-10-16T19:13:07.516Z,11.02
2022-10-16T19:15:46.834Z,5.55
2022-10-16T19:18:23.408Z,8.00
2022-10-16T19:20:53.876Z,12.30
2022-10-16T19:23:20.965Z,7.10
2022-10-16T19:25:47.634Z,7.85
2022-10-16T19:28:14.229Z,8.63
2022-10-16T19:30:42.781Z,5.63
2022-10-16T19:33:09.412Z,7.28
2022-10-16T19:35:36.274Z,9.63
2022-10-16T19:38:02.881Z,6.00
2022-10-16T19:40:29.631Z,12.35
2022-10-16T19:42:56.812Z,6.50
2022-10-16T19:45:23.524Z,10.57
2022-10-16T19:47:50.175Z,8.63
2022-10-16T19:50:19.484Z,8.90
2022-10-16T19:52:51.406Z,4.43
2022-10-16T19:55:20.229Z,11.30
2022-10-16T19:57:48.786Z,15.80
2022-10-16T20:00:19.610Z,11.57
2022-10-16T20:02:49.272Z,12.50
2022-10-16T20:05:16.483Z,10.77
2022-10-16T20:07:43.222Z,11.25
2022-10-16T20:10:12.236Z,10.32
2022-10-16T20:12:39.090Z,7.13
2022-10-16T20:15:06.198Z,8.23
2022-10-16T20:17:32.880Z,5.10
2022-10-16T20:19:59.449Z,5.20
2022-10-16T20:22:26.258Z,4.63
2022-10-16T20:24:52.909Z,8.20
2022-10-16T20:27:19.514Z,4.38
2022-10-16T20:29:46.097Z,8.65
2022-10-16T20:32:12.682Z,9.90
2022-10-16T20:34:39.896Z,9.10
2022-10-16T20:37:06.479Z,13.98
2022-10-16T20:39:33.087Z,7.85
2022-10-16T20:41:59.687Z,6.72
2022-10-16T20:44:26.234Z,7.53
2022-10-16T20:46:55.214Z,4.18
2022-10-16T20:49:39.160Z,5.05
2022-10-16T20:52:06.373Z,8.90
2022-10-16T20:54:33.032Z,5.70
2022-10-16T20:56:59.580Z,9.10
2022-10-16T20:59:26.148Z,5.63
2022-10-16T21:01:52.836Z,4.60
2022-10-16T21:04:19.481Z,7.38
2022-10-16T21:06:46.106Z,7.35
2022-10-16T21:09:12.678Z,3.85
2022-10-16T21:11:39.301Z,8.65
2022-10-16T21:14:07.561Z,4.63
2022-10-16T21:16:34.415Z,5.57
2022-10-16T21:19:01.033Z,7.95
2022-10-16T21:21:30.683Z,11.48
2022-10-16T21:23:58.612Z,6.93
2022-10-16T21:26:26.908Z,7.53
2022-10-16T21:28:58.822Z,9.57
2022-10-16T21:31:25.846Z,9.93
2022-10-16T21:33:53.400Z,9.23
2022-10-16T21:36:22.498Z,8.45
2022-10-16T21:38:50.132Z,8.73
2022-10-16T21:41:26.316Z,6.35
2022-10-16T21:43:54.145Z,10.50
2022-10-16T21:46:24.119Z,9.00
2022-10-16T21:48:58.067Z,6.60
2022-10-16T21:51:38.851Z,7.93
2022-10-16T21:54:09.663Z,8.43
2022-10-16T21:56:36.261Z,7.28
2022-10-16T21:59:03.694Z,9.57
2022-10-16T22:01:31.110Z,5.60
2022-10-16T22:03:58.416Z,6.88
2022-10-16T22:06:27.423Z,8.60
2022-10-16T22:08:56.666Z,6.35
2022-10-16T22:11:36.634Z,9.25
2022-10-16T22:14:09.521Z,5.38
2022-10-16T22:16:36.969Z,6.15
2022-10-16T22:19:07.052Z,9.57
2022-10-16T22:21:37.430Z,11.75
2022-10-16T22:24:04.605Z,10.95
2022-10-16T22:26:31.225Z,7.90
2022-10-16T22:28:57.840Z,6.63
2022-10-16T22:31:24.536Z,7.97
2022-10-16T22:33:58.465Z,8.38
2022-10-16T22:36:25.370Z,8.75
2022-10-16T22:38:52.092Z,8.20
2022-10-16T22:41:19.359Z,8.48
2022-10-16T22:43:50.304Z,11.88
2022-10-16T22:46:22.253Z,8.25
2022-10-16T22:48:49.332Z,8.65
2022-10-16T22:51:17.203Z,7.55
2022-10-16T22:53:48.023Z,6.70
2022-10-16T22:56:16.057Z,7.40
2022-10-16T22:58:42.798Z,7.63
2022-10-16T23:01:24.781Z,11.38
2022-10-16T23:03:51.389Z,7.22
2022-10-16T23:06:18.044Z,7.78
2022-10-16T23:08:44.666Z,10.10
2022-10-16T23:11:13.037Z,9.85
2022-10-16T23:13:45.022Z,10.95
2022-10-16T23:16:14.669Z,8.50
2022-10-16T23:18:41.756Z,7.57
2022-10-16T23:21:12.203Z,7.05
2022-10-16T23:23:39.993Z,10.88
2022-10-16T23:26:15.937Z,7.78
2022-10-16T23:28:43.058Z,7.07
2022-10-16T23:31:11.293Z,9.52
2022-10-16T23:33:38.944Z,10.57
2022-10-16T23:36:08.794Z,9.70
2022-10-16T23:38:35.534Z,10.93
2022-10-16T23:41:02.585Z,9.93
2022-10-16T23:43:29.491Z,12.38
2022-10-16T23:45:56.426Z,11.75
2022-10-16T23:48:23.205Z,9.90
2022-10-16T23:50:49.874Z,8.85
2022-10-16T23:53:16.559Z,9.63
2022-10-16T23:55:43.206Z,8.32
2022-10-16T23:58:09.841Z,8.80
